Time;durP1;ratioP1;P1;durP2;ratioP2;P2;SDS_P1;SDS_P2;PMS_P1;PMS_P2;Temp;Humidity;BMP_temperature;BMP_pressure;BME280_temperature;BME280_humidity;BME280_pressure;Samples;Min_cycle;Max_cycle;Signal;HPM_P1;HPM_P2
2023/12/15 00:01:56;;;;;;;16.43;10.80;;;;;;;;;;5033521;28;20429;-84
2023/12/15 00:04:21;;;;;;;17.53;9.60;;;;;;;;;;5033761;28;20441;-83
2023/12/15 00:06:48;;;;;;;16.70;10.17;;;;;;;;;;5033664;28;20429;-82
2023/12/15 00:09:15;;;;;;;17.43;10.83;;;;;;;;;;5033671;28;20409;-82
2023/12/15 00:11:41;;;;;;;16.37;11.03;;;;;;;;;;5033645;28;20543;-82
2023/12/15 00:14:07;;;;;;;15.33;10.70;;;;;;;;;;5037585;28;21058;-82
2023/12/15 00:16:32;;;;;;;17.93;11.77;;;;;;;;;;5013517;28;20418;-82
2023/12/15 00:18:58;;;;;;;17.00;11.03;;;;;;;;;;5013788;28;20449;-80
2023/12/15 00:21:24;;;;;;;14.10;9.97;;;;;;;;;;5012725;28;20433;-81
2023/12/15 00:23:50;;;;;;;17.37;10.97;;;;;;;;;;5013765;28;20520;-82
2023/12/15 00:26:16;;;;;;;21.47;11.37;;;;;;;;;;5013474;28;20458;-82
2023/12/15 00:28:42;;;;;;;19.40;11.47;;;;;;;;;;5013652;28;20481;-82
2023/12/15 00:31:08;;;;;;;24.17;12.47;;;;;;;;;;5013090;28;20815;-83
2023/12/15 00:33:34;;;;;;;18.17;11.73;;;;;;;;;;5013467;28;20422;-80
2023/12/15 00:36:00;;;;;;;16.77;9.90;;;;;;;;;;5013489;28;20405;-83
2023/12/15 00:38:26;;;;;;;19.13;10.97;;;;;;;;;;5013405;28;20906;-83
2023/12/15 00:40:51;;;;;;;13.93;10.07;;;;;;;;;;5013259;28;20890;-84
2023/12/15 00:43:18;;;;;;;16.03;11.20;;;;;;;;;;5013223;28;20417;-83
2023/12/15 00:45:44;;;;;;;16.87;10.93;;;;;;;;;;5012826;28;20746;-81
2023/12/15 00:48:10;;;;;;;17.87;10.70;;;;;;;;;;5013055;28;20418;-82
2023/12/15 00:50:36;;;;;;;18.90;10.80;;;;;;;;;;5013047;28;20417;-82
2023/12/15 00:53:02;;;;;;;13.70;9.53;;;;;;;;;;5012841;28;20476;-82
2023/12/15 00:55:28;;;;;;;19.03;10.40;;;;;;;;;;5011951;28;20792;-84
2023/12/15 00:57:54;;;;;;;16.60;10.40;;;;;;;;;;5012426;28;20568;-83
2023/12/15 01:00:20;;;;;;;16.07;10.97;;;;;;;;;;5012472;28;20501;-81
2023/12/15 01:02:46;;;;;;;17.67;11.50;;;;;;;;;;5013046;28;20410;-83
2023/12/15 01:05:12;;;;;;;16.83;10.50;;;;;;;;;;5012734;28;20964;-83
2023/12/15 01:07:38;;;;;;;12.90;9.27;;;;;;;;;;5013086;28;20984;-81
2023/12/15 01:10:04;;;;;;;20.40;13.30;;;;;;;;;;5013115;28;20408;-83
2023/12/15 01:12:30;;;;;;;15.87;9.57;;;;;;;;;;5012903;28;21018;-82
2023/12/15 01:14:55;;;;;;;18.23;11.83;;;;;;;;;;5013015;28;20488;-83
2023/12/15 01:17:21;;;;;;;17.23;10.80;;;;;;;;;;5012598;28;20414;-80
2023/12/15 01:19:47;;;;;;;17.73;10.87;;;;;;;;;;5013028;28;20908;-83
2023/12/15 01:22:19;;;;;;;18.00;12.27;;;;;;;;;;5012801;28;20414;-82
2023/12/15 01:24:45;;;;;;;15.40;10.23;;;;;;;;;;5012613;28;20425;-83
2023/12/15 01:27:11;;;;;;;14.97;9.90;;;;;;;;;;5012527;28;20884;-83
2023/12/15 01:29:37;;;;;;;16.90;11.13;;;;;;;;;;5012601;28;20800;-83
2023/12/15 01:32:03;;;;;;;17.40;10.17;;;;;;;;;;5012565;28;20536;-83
2023/12/15 01:34:29;;;;;;;19.20;10.97;;;;;;;;;;5015346;28;20413;-83
2023/12/15 01:36:55;;;;;;;17.13;9.73;;;;;;;;;;5016607;28;20417;-83
2023/12/15 01:39:24;;;;;;;18.40;11.67;;;;;;;;;;5015020;28;20835;-83
2023/12/15 01:41:50;;;;;;;17.53;10.70;;;;;;;;;;5016394;28;20520;-81
2023/12/15 01:44:19;;;;;;;23.57;11.83;;;;;;;;;;4975040;28;20785;-83
2023/12/15 01:46:45;;;;;;;16.47;11.07;;;;;;;;;;5016097;28;20528;-83
2023/12/15 01:49:11;;;;;;;16.60;10.63;;;;;;;;;;5016476;28;20425;-83
2023/12/15 01:51:37;;;;;;;20.40;10.40;;;;;;;;;;5016510;28;20462;-83
2023/12/15 01:54:03;;;;;;;19.77;10.57;;;;;;;;;;5016005;28;20937;-83
2023/12/15 01:56:32;;;;;;;17.20;11.37;;;;;;;;;;5015356;28;20410;-82
2023/12/15 01:59:01;;;;;;;16.30;10.90;;;;;;;;;;5015464;28;20444;-83
2023/12/15 02:01:27;;;;;;;17.30;11.40;;;;;;;;;;5012802;28;20408;-83
2023/12/15 02:03:53;;;;;;;18.23;10.93;;;;;;;;;;5015857;28;20500;-83
2023/12/15 02:06:19;;;;;;;18.77;11.20;;;;;;;;;;5016166;28;20415;-82
2023/12/15 02:08:46;;;;;;;18.80;11.33;;;;;;;;;;5015968;28;20413;-83
2023/12/15 02:11:12;;;;;;;16.90;9.70;;;;;;;;;;5015887;28;20449;-83
2023/12/15 02:13:38;;;;;;;18.83;11.07;;;;;;;;;;5015974;28;20414;-81
2023/12/15 02:16:04;;;;;;;20.40;11.40;;;;;;;;;;5030742;28;21080;-82
2023/12/15 02:18:30;;;;;;;20.10;11.37;;;;;;;;;;5015933;28;20425;-81
2023/12/15 02:20:56;;;;;;;21.60;12.00;;;;;;;;;;5015706;28;20406;-83
2023/12/15 02:23:22;;;;;;;23.40;12.97;;;;;;;;;;5015680;28;20496;-82
2023/12/15 02:25:48;;;;;;;22.30;12.17;;;;;;;;;;5015519;28;20543;-80
2023/12/15 02:28:14;;;;;;;19.07;12.57;;;;;;;;;;5015736;28;20983;-83
2023/12/15 02:30:40;;;;;;;21.70;12.67;;;;;;;;;;5030464;28;20414;-83
2023/12/15 02:33:06;;;;;;;21.63;11.67;;;;;;;;;;5015468;28;20465;-80
2023/12/15 02:35:32;;;;;;;18.37;12.10;;;;;;;;;;5015555;28;20406;-81
2023/12/15 02:37:57;;;;;;;21.33;11.50;;;;;;;;;;5030756;28;20424;-80
2023/12/15 02:40:23;;;;;;;18.37;11.20;;;;;;;;;;5015377;28;20501;-81
2023/12/15 02:42:52;;;;;;;19.43;10.60;;;;;;;;;;5015337;28;20902;-82
2023/12/15 02:45:18;;;;;;;22.27;13.03;;;;;;;;;;5013934;28;20510;-81
2023/12/15 02:47:44;;;;;;;19.40;11.90;;;;;;;;;;5015265;28;20453;-80
2023/12/15 02:50:11;;;;;;;22.00;13.00;;;;;;;;;;5015635;28;20417;-80
2023/12/15 02:52:40;;;;;;;22.93;12.00;;;;;;;;;;5015652;28;20480;-80
2023/12/15 02:55:06;;;;;;;19.67;12.30;;;;;;;;;;5015801;28;20459;-82
2023/12/15 02:57:33;;;;;;;22.97;12.90;;;;;;;;;;5015718;28;20413;-81
2023/12/15 02:59:59;;;;;;;20.50;11.60;;;;;;;;;;5015524;28;20428;-80
2023/12/15 03:02:25;;;;;;;19.57;10.63;;;;;;;;;;5015548;28;20418;-81
2023/12/15 03:04:51;;;;;;;18.33;12.17;;;;;;;;;;5030747;28;20429;-82
2023/12/15 03:07:17;;;;;;;22.07;12.70;;;;;;;;;;5015472;28;20422;-82
2023/12/15 03:09:43;;;;;;;26.90;13.73;;;;;;;;;;5015520;28;20410;-82
2023/12/15 03:12:09;;;;;;;20.67;12.73;;;;;;;;;;5015393;28;20953;-80
2023/12/15 03:14:34;;;;;;;21.67;12.20;;;;;;;;;;5015299;28;20426;-83
2023/12/15 03:17:00;;;;;;;23.40;12.97;;;;;;;;;;5015071;28;20402;-83
2023/12/15 03:19:26;;;;;;;19.23;11.93;;;;;;;;;;5015323;28;20419;-81
2023/12/15 03:21:52;;;;;;;26.53;13.60;;;;;;;;;;5015188;28;20418;-83
2023/12/15 03:24:18;;;;;;;20.27;11.13;;;;;;;;;;5030459;28;20421;-81
2023/12/15 03:26:44;;;;;;;22.23;12.07;;;;;;;;;;5030227;28;20481;-83
2023/12/15 03:29:10;;;;;;;17.20;11.10;;;;;;;;;;5015138;28;20418;-82
2023/12/15 03:31:36;;;;;;;22.07;12.90;;;;;;;;;;5014600;28;20458;-82
2023/12/15 03:34:02;;;;;;;19.47;11.83;;;;;;;;;;5030279;28;20422;-82
2023/12/15 03:36:28;;;;;;;16.87;11.90;;;;;;;;;;5014941;28;20404;-84
2023/12/15 03:38:53;;;;;;;19.57;11.90;;;;;;;;;;5014929;28;20819;-82
2023/12/15 03:41:19;;;;;;;21.03;11.63;;;;;;;;;;5014852;28;20407;-83
2023/12/15 03:43:45;;;;;;;21.00;12.17;;;;;;;;;;5014813;28;20417;-81
2023/12/15 03:46:14;;;;;;;22.17;12.97;;;;;;;;;;5029650;28;20410;-85
2023/12/15 03:48:40;;;;;;;20.90;11.30;;;;;;;;;;5014628;28;20774;-84
2023/12/15 03:51:06;;;;;;;26.63;13.60;;;;;;;;;;5014697;28;20417;-83
2023/12/15 03:53:32;;;;;;;19.30;11.60;;;;;;;;;;5014587;28;20470;-84
2023/12/15 03:55:58;;;;;;;18.30;10.73;;;;;;;;;;5014390;28;20417;-84
2023/12/15 03:58:24;;;;;;;23.13;11.83;;;;;;;;;;5014555;28;20756;-83
2023/12/15 04:00:51;;;;;;;22.10;10.80;;;;;;;;;;5014190;28;20406;-83
2023/12/15 04:03:17;;;;;;;21.50;11.50;;;;;;;;;;5014356;28;20406;-84
2023/12/15 04:05:49;;;;;;;21.70;12.37;;;;;;;;;;5014307;28;20424;-82
2023/12/15 04:08:15;;;;;;;21.63;13.70;;;;;;;;;;4995875;28;20406;-82
2023/12/15 04:10:44;;;;;;;19.83;12.47;;;;;;;;;;4994217;28;20413;-82
2023/12/15 04:13:10;;;;;;;22.43;11.30;;;;;;;;;;5014126;28;20469;-82
2023/12/15 04:15:36;;;;;;;24.53;13.40;;;;;;;;;;5013889;28;20420;-82
2023/12/15 04:18:04;;;;;;;20.77;12.27;;;;;;;;;;5014229;28;20421;-82
2023/12/15 04:20:30;;;;;;;21.43;13.57;;;;;;;;;;5014220;28;20557;-81
2023/12/15 04:22:55;;;;;;;22.90;12.27;;;;;;;;;;5014215;28;20471;-81
2023/12/15 04:25:21;;;;;;;21.20;12.43;;;;;;;;;;5013972;28;20504;-82
2023/12/15 04:27:47;;;;;;;22.77;13.40;;;;;;;;;;5029347;28;20513;-82
2023/12/15 04:30:13;;;;;;;27.10;13.60;;;;;;;;;;5013633;28;20418;-82
2023/12/15 04:32:40;;;;;;;23.23;12.10;;;;;;;;;;5013818;28;20832;-82
2023/12/15 04:35:06;;;;;;;24.67;13.80;;;;;;;;;;5013978;28;20505;-82
2023/12/15 04:37:32;;;;;;;26.90;14.33;;;;;;;;;;5013905;28;20452;-82
2023/12/15 04:39:58;;;;;;;33.23;15.17;;;;;;;;;;5013945;28;20452;-82
2023/12/15 04:42:25;;;;;;;26.10;13.00;;;;;;;;;;5013700;28;20467;-82
2023/12/15 04:44:50;;;;;;;33.17;15.70;;;;;;;;;;5028614;28;20429;-82
2023/12/15 04:47:16;;;;;;;28.30;15.30;;;;;;;;;;5013724;28;20493;-82
2023/12/15 04:49:48;;;;;;;26.97;14.00;;;;;;;;;;5013752;28;20854;-82
2023/12/15 04:52:14;;;;;;;26.00;15.97;;;;;;;;;;5013642;28;20479;-82
2023/12/15 04:54:40;;;;;;;31.07;16.07;;;;;;;;;;5013606;28;20417;-82
2023/12/15 04:57:06;;;;;;;33.30;16.63;;;;;;;;;;5013600;28;20477;-82
2023/12/15 04:59:39;;;;;;;29.93;16.47;;;;;;;;;;5013583;28;20426;-82
2023/12/15 05:02:05;;;;;;;30.27;15.10;;;;;;;;;;5013534;28;20409;-81
2023/12/15 05:04:31;;;;;;;30.93;17.30;;;;;;;;;;5013554;28;20407;-82
2023/12/15 05:06:57;;;;;;;31.33;17.20;;;;;;;;;;5012880;28;20412;-83
2023/12/15 05:09:23;;;;;;;31.80;16.00;;;;;;;;;;5013410;28;20910;-82
2023/12/15 05:11:49;;;;;;;28.47;16.27;;;;;;;;;;5013439;28;20463;-83
2023/12/15 05:14:15;;;;;;;32.57;16.27;;;;;;;;;;5013447;28;20810;-82
2023/12/15 05:16:41;;;;;;;27.90;15.67;;;;;;;;;;5028216;28;20403;-82
2023/12/15 05:19:06;;;;;;;31.73;16.53;;;;;;;;;;5013302;28;20480;-83
2023/12/15 05:21:32;;;;;;;33.20;18.20;;;;;;;;;;5013151;28;20774;-82
2023/12/15 05:23:59;;;;;;;33.80;17.37;;;;;;;;;;5013412;28;20489;-83
2023/12/15 05:26:29;;;;;;;27.80;15.73;;;;;;;;;;5013007;28;20816;-83
2023/12/15 05:28:55;;;;;;;32.43;18.60;;;;;;;;;;5013233;28;20454;-83
2023/12/15 05:31:24;;;;;;;31.17;17.73;;;;;;;;;;5012713;28;20406;-83
2023/12/15 05:33:50;;;;;;;31.20;15.33;;;;;;;;;;5013142;28;20423;-82
2023/12/15 05:36:33;;;;;;;38.90;18.23;;;;;;;;;;5013015;28;20412;-83
2023/12/15 05:38:59;;;;;;;29.10;14.70;;;;;;;;;;5013062;28;20475;-83
2023/12/15 05:41:25;;;;;;;30.20;18.07;;;;;;;;;;5012985;28;20410;-83
2023/12/15 05:43:51;;;;;;;27.00;15.43;;;;;;;;;;5012928;28;20409;-83
2023/12/15 05:46:19;;;;;;;33.80;15.87;;;;;;;;;;4972856;28;20433;-82
2023/12/15 05:48:45;;;;;;;30.13;17.00;;;;;;;;;;5012929;28;20414;-83
2023/12/15 05:51:11;;;;;;;26.20;14.83;;;;;;;;;;5012953;28;20420;-83
2023/12/15 05:53:37;;;;;;;30.97;17.70;;;;;;;;;;5012941;28;20479;-83
2023/12/15 05:56:03;;;;;;;28.60;14.50;;;;;;;;;;5012970;28;20414;-83
2023/12/15 05:58:29;;;;;;;31.50;16.00;;;;;;;;;;5012948;28;20916;-81
2023/12/15 06:00:55;;;;;;;30.70;15.93;;;;;;;;;;5012425;28;20490;-82
2023/12/15 06:03:21;;;;;;;27.40;15.97;;;;;;;;;;5012706;28;20444;-83
2023/12/15 06:05:47;;;;;;;28.90;15.97;;;;;;;;;;5012824;28;20442;-82
2023/12/15 06:08:13;;;;;;;35.93;17.97;;;;;;;;;;5012864;28;20419;-82
2023/12/15 06:10:40;;;;;;;27.63;14.63;;;;;;;;;;5012802;28;20846;-83
2023/12/15 06:13:06;;;;;;;28.30;14.10;;;;;;;;;;5012758;28;20907;-83
2023/12/15 06:15:32;;;;;;;27.70;15.40;;;;;;;;;;5012333;28;20495;-83
2023/12/15 06:17:58;;;;;;;25.10;15.50;;;;;;;;;;5028327;28;20430;-81
2023/12/15 06:20:24;;;;;;;33.40;16.80;;;;;;;;;;5031575;28;20421;-82
2023/12/15 06:22:51;;;;;;;28.17;13.67;;;;;;;;;;5016307;28;20926;-82
2023/12/15 06:25:17;;;;;;;27.00;14.40;;;;;;;;;;5015985;28;20474;-82
2023/12/15 06:27:42;;;;;;;25.40;15.20;;;;;;;;;;5016280;28;20420;-82
2023/12/15 06:30:09;;;;;;;31.03;14.93;;;;;;;;;;5030812;28;20783;-82
2023/12/15 06:32:37;;;;;;;27.57;13.43;;;;;;;;;;5015358;28;20899;-82
2023/12/15 06:35:05;;;;;;;28.90;15.27;;;;;;;;;;5015577;28;20407;-82
2023/12/15 06:37:31;;;;;;;26.77;14.33;;;;;;;;;;5015305;28;20407;-82
2023/12/15 06:39:57;;;;;;;33.13;15.20;;;;;;;;;;5015320;28;20417;-81
2023/12/15 06:42:23;;;;;;;29.60;14.70;;;;;;;;;;5019242;28;20419;-80
2023/12/15 06:44:49;;;;;;;27.47;15.20;;;;;;;;;;5021606;28;20401;-80
2023/12/15 06:47:15;;;;;;;28.20;15.10;;;;;;;;;;4987479;28;20426;-81
2023/12/15 06:49:41;;;;;;;25.53;15.73;;;;;;;;;;5030739;28;20422;-81
2023/12/15 06:52:09;;;;;;;27.53;15.53;;;;;;;;;;5015065;28;20474;-82
2023/12/15 06:54:39;;;;;;;29.27;14.73;;;;;;;;;;5015549;28;20407;-82
2023/12/15 06:57:06;;;;;;;29.87;15.67;;;;;;;;;;5015404;28;20424;-82
2023/12/15 06:59:32;;;;;;;27.70;13.90;;;;;;;;;;5030438;28;20445;-82
2023/12/15 07:01:57;;;;;;;33.87;17.10;;;;;;;;;;5015594;28;20455;-83
2023/12/15 07:04:23;;;;;;;29.93;15.60;;;;;;;;;;5015328;28;20422;-82
2023/12/15 07:06:49;;;;;;;28.70;14.90;;;;;;;;;;5014923;28;20775;-82
2023/12/15 07:09:15;;;;;;;28.53;14.90;;;;;;;;;;5030331;28;20418;-83
2023/12/15 07:11:41;;;;;;;29.93;16.00;;;;;;;;;;5015038;28;20459;-82
2023/12/15 07:14:07;;;;;;;28.93;14.73;;;;;;;;;;5030498;28;20431;-83
2023/12/15 07:16:33;;;;;;;32.10;14.53;;;;;;;;;;5030234;28;20773;-82
2023/12/15 07:18:59;;;;;;;31.87;16.03;;;;;;;;;;5015132;28;20424;-82
2023/12/15 07:21:26;;;;;;;31.87;16.50;;;;;;;;;;5030547;28;20835;-83
2023/12/15 07:23:54;;;;;;;36.00;17.70;;;;;;;;;;5015319;28;20932;-83
2023/12/15 07:26:20;;;;;;;30.97;16.37;;;;;;;;;;5015172;28;20793;-84
2023/12/15 07:28:50;;;;;;;43.17;18.53;;;;;;;;;;5014959;28;20448;-83
2023/12/15 07:31:19;;;;;;;49.07;18.07;;;;;;;;;;5014260;28;20416;-84
2023/12/15 07:33:48;;;;;;;39.37;17.80;;;;;;;;;;5014994;28;20470;-84
2023/12/15 07:36:17;;;;;;;38.40;17.23;;;;;;;;;;5030050;28;20417;-86
2023/12/15 07:38:43;;;;;;;32.60;18.20;;;;;;;;;;5014475;28;20911;-83
2023/12/15 07:41:09;;;;;;;35.07;17.47;;;;;;;;;;5014159;28;20406;-83
2023/12/15 07:43:38;;;;;;;39.87;16.50;;;;;;;;;;5014481;28;20839;-84
2023/12/15 07:46:05;;;;;;;39.50;18.83;;;;;;;;;;5011631;28;20410;-86
2023/12/15 07:48:31;;;;;;;40.10;19.23;;;;;;;;;;5014422;28;20828;-82
2023/12/15 07:50:57;;;;;;;41.20;19.40;;;;;;;;;;5014301;28;20409;-82
2023/12/15 07:53:24;;;;;;;47.53;19.87;;;;;;;;;;4974725;28;21419;-82
2023/12/15 07:55:50;;;;;;;35.67;17.53;;;;;;;;;;5029594;28;20415;-83
2023/12/15 07:58:16;;;;;;;33.37;16.40;;;;;;;;;;5014185;28;20425;-82
2023/12/15 08:00:42;;;;;;;41.43;20.53;;;;;;;;;;5013432;28;20415;-83
2023/12/15 08:03:16;;;;;;;41.07;19.53;;;;;;;;;;5014043;28;20424;-82
2023/12/15 08:05:42;;;;;;;43.50;19.40;;;;;;;;;;5014022;28;20416;-83
2023/12/15 08:08:08;;;;;;;38.13;19.37;;;;;;;;;;5013887;28;20786;-84
2023/12/15 08:10:34;;;;;;;39.17;21.27;;;;;;;;;;5013975;28;20439;-82
2023/12/15 08:13:00;;;;;;;47.93;20.20;;;;;;;;;;5013743;28;20902;-82
2023/12/15 08:15:26;;;;;;;44.53;21.30;;;;;;;;;;5013694;28;20427;-82
2023/12/15 08:17:52;;;;;;;50.63;22.53;;;;;;;;;;5013895;28;20412;-83
2023/12/15 08:20:18;;;;;;;45.30;19.90;;;;;;;;;;5013636;28;20414;-83
2023/12/15 08:22:44;;;;;;;48.53;22.83;;;;;;;;;;5013839;28;20411;-83
2023/12/15 08:25:10;;;;;;;50.83;20.40;;;;;;;;;;5013529;28;20480;-83
2023/12/15 08:27:39;;;;;;;48.07;21.20;;;;;;;;;;5028870;28;20963;-84
2023/12/15 08:30:08;;;;;;;42.67;20.87;;;;;;;;;;5014041;28;20413;-86
2023/12/15 08:32:34;;;;;;;44.97;20.47;;;;;;;;;;5029276;28;20458;-85
2023/12/15 08:35:00;;;;;;;46.77;21.23;;;;;;;;;;5029392;28;20416;-86
2023/12/15 08:37:28;;;;;;;45.50;20.00;;;;;;;;;;5014066;28;20424;-85
2023/12/15 08:39:54;;;;;;;44.97;20.37;;;;;;;;;;5013349;28;20428;-84
2023/12/15 08:42:20;;;;;;;40.40;19.70;;;;;;;;;;5012596;28;20442;-84
2023/12/15 08:44:46;;;;;;;51.07;20.47;;;;;;;;;;5013167;28;20408;-85
2023/12/15 08:47:15;;;;;;;53.70;22.73;;;;;;;;;;5013169;28;20411;-85
2023/12/15 08:49:41;;;;;;;42.13;22.10;;;;;;;;;;5028460;28;20492;-85
2023/12/15 08:52:06;;;;;;;42.03;19.93;;;;;;;;;;5013141;28;20532;-86
2023/12/15 08:54:32;;;;;;;45.13;21.30;;;;;;;;;;4975342;28;20433;-85
2023/12/15 08:56:58;;;;;;;47.47;20.80;;;;;;;;;;5017908;28;20470;-83
2023/12/15 08:59:25;;;;;;;46.20;21.83;;;;;;;;;;5012503;28;20836;-84
2023/12/15 09:01:51;;;;;;;48.50;21.60;;;;;;;;;;5007851;28;20416;-83
2023/12/15 09:04:17;;;;;;;45.53;21.17;;;;;;;;;;5012160;28;20416;-83
2023/12/15 09:06:43;;;;;;;50.87;21.90;;;;;;;;;;5012462;28;20413;-84
2023/12/15 09:09:10;;;;;;;48.40;21.77;;;;;;;;;;5012719;28;20480;-84
2023/12/15 09:11:36;;;;;;;44.97;18.60;;;;;;;;;;5027518;28;20413;-86
2023/12/15 09:14:02;;;;;;;43.33;20.83;;;;;;;;;;5012362;28;20428;-84
2023/12/15 09:16:28;;;;;;;50.40;21.07;;;;;;;;;;5012365;28;20819;-85
2023/12/15 09:18:54;;;;;;;39.23;20.37;;;;;;;;;;5012759;28;20901;-86
2023/12/15 09:21:20;;;;;;;42.77;20.20;;;;;;;;;;5012777;28;20405;-86
2023/12/15 09:23:47;;;;;;;45.70;20.97;;;;;;;;;;5012705;28;20420;-87
2023/12/15 09:26:13;;;;;;;43.60;19.07;;;;;;;;;;5027719;28;20507;-85
2023/12/15 09:28:42;;;;;;;40.47;20.03;;;;;;;;;;5027578;28;20460;-86
2023/12/15 09:31:07;;;;;;;42.87;17.20;;;;;;;;;;5012311;28;20754;-87
2023/12/15 09:33:33;;;;;;;45.37;21.30;;;;;;;;;;5012269;28;20479;-86
2023/12/15 09:35:59;;;;;;;42.00;20.73;;;;;;;;;;5012640;28;20432;-85
2023/12/15 09:38:25;;;;;;;37.83;19.20;;;;;;;;;;5010688;28;20936;-85
2023/12/15 09:40:51;;;;;;;38.73;19.57;;;;;;;;;;5011065;28;20418;-84
2023/12/15 09:43:17;;;;;;;38.80;18.93;;;;;;;;;;5012071;28;20422;-85
2023/12/15 09:45:44;;;;;;;36.03;18.43;;;;;;;;;;5011827;28;20490;-86
2023/12/15 09:48:11;;;;;;;35.73;18.37;;;;;;;;;;5012173;28;20908;-87
2023/12/15 09:50:41;;;;;;;36.33;17.80;;;;;;;;;;5027252;28;20418;-86
2023/12/15 09:53:07;;;;;;;38.97;18.10;;;;;;;;;;5010525;28;20830;-86
2023/12/15 09:55:33;;;;;;;34.37;17.20;;;;;;;;;;5015836;28;20411;-85
2023/12/15 09:58:00;;;;;;;32.40;16.67;;;;;;;;;;5031104;28;20498;-85
2023/12/15 10:00:26;;;;;;;39.40;18.40;;;;;;;;;;5015519;28;20407;-85
2023/12/15 10:02:52;;;;;;;38.40;17.67;;;;;;;;;;5016094;28;20411;-85
2023/12/15 10:05:17;;;;;;;37.73;17.60;;;;;;;;;;5016260;28;20421;-85
2023/12/15 10:07:44;;;;;;;40.83;18.00;;;;;;;;;;5031476;28;20782;-86
2023/12/15 10:10:11;;;;;;;39.37;20.73;;;;;;;;;;5016193;28;20515;-86
2023/12/15 10:12:40;;;;;;;42.17;18.83;;;;;;;;;;5031294;28;20511;-87
2023/12/15 10:15:06;;;;;;;42.20;18.57;;;;;;;;;;5030915;28;20429;-86
2023/12/15 10:17:33;;;;;;;42.60;17.90;;;;;;;;;;5016025;28;20416;-86
2023/12/15 10:20:06;;;;;;;44.43;18.17;;;;;;;;;;5016054;28;20410;-85
2023/12/15 10:22:32;;;;;;;44.07;20.43;;;;;;;;;;5015820;28;20416;-84
2023/12/15 10:24:58;;;;;;;46.73;18.80;;;;;;;;;;5015703;28;20496;-84
2023/12/15 10:27:24;;;;;;;48.87;22.30;;;;;;;;;;5015936;28;20451;-83
2023/12/15 10:29:50;;;;;;;48.23;21.33;;;;;;;;;;5015338;28;20446;-85
2023/12/15 10:32:16;;;;;;;48.70;21.07;;;;;;;;;;5015614;28;20506;-86
2023/12/15 10:34:43;;;;;;;42.53;18.23;;;;;;;;;;5015542;28;20427;-85
2023/12/15 10:37:09;;;;;;;54.03;20.70;;;;;;;;;;5015590;28;20413;-85
2023/12/15 10:39:35;;;;;;;44.20;18.90;;;;;;;;;;5015850;28;20897;-84
2023/12/15 10:42:03;;;;;;;45.77;21.37;;;;;;;;;;5015632;28;20413;-82
2023/12/15 10:44:30;;;;;;;44.73;20.30;;;;;;;;;;5015181;28;20426;-86
2023/12/15 10:46:57;;;;;;;42.63;20.37;;;;;;;;;;5015312;28;20447;-83
2023/12/15 10:49:24;;;;;;;51.83;21.50;;;;;;;;;;5029917;28;20422;-85
2023/12/15 10:51:50;;;;;;;41.33;19.27;;;;;;;;;;5029076;28;20465;-86
2023/12/15 10:54:17;;;;;;;46.87;20.47;;;;;;;;;;5015387;28;20421;-83
2023/12/15 10:56:45;;;;;;;51.00;22.90;;;;;;;;;;5015366;28;20432;-84
2023/12/15 10:59:11;;;;;;;47.63;22.30;;;;;;;;;;5014784;28;20845;-86
2023/12/15 11:01:40;;;;;;;45.43;18.27;;;;;;;;;;5015224;28;20923;-84
2023/12/15 11:04:24;;;;;;;47.67;20.77;;;;;;;;;;5015113;28;20501;-85
2023/12/15 11:06:50;;;;;;;48.67;22.30;;;;;;;;;;5014659;28;20500;-85
2023/12/15 11:09:32;;;;;;;49.27;21.10;;;;;;;;;;5014508;28;20972;-85
2023/12/15 11:12:37;;;;;;;45.67;19.40;;;;;;;;;;5015254;28;20514;-86
2023/12/15 11:15:04;;;;;;;36.93;17.27;;;;;;;;;;4954443;29;20432;-85
2023/12/15 11:17:34;;;;;;;47.60;18.90;;;;;;;;;;4953805;29;21008;-84
2023/12/15 11:19:59;;;;;;;41.10;18.93;;;;;;;;;;4984757;28;20882;-85
2023/12/15 11:22:28;;;;;;;36.93;18.13;;;;;;;;;;5015234;28;20406;-86
2023/12/15 11:24:54;;;;;;;49.33;17.23;;;;;;;;;;5014390;28;20771;-86
2023/12/15 11:27:21;;;;;;;37.43;17.60;;;;;;;;;;5015027;28;20419;-86
2023/12/15 11:29:46;;;;;;;38.23;17.03;;;;;;;;;;5014793;28;20402;-85
2023/12/15 11:32:33;;;;;;;35.67;17.67;;;;;;;;;;5015160;28;20947;-85
2023/12/15 11:35:09;;;;;;;39.13;16.97;;;;;;;;;;5014653;28;20420;-86
2023/12/15 11:37:36;;;;;;;32.10;16.50;;;;;;;;;;5015031;28;20424;-84
2023/12/15 11:40:02;;;;;;;49.00;15.37;;;;;;;;;;5014811;28;20420;-85
2023/12/15 11:42:28;;;;;;;53.03;19.43;;;;;;;;;;5014684;28;20432;-84
2023/12/15 11:44:56;;;;;;;35.23;15.30;;;;;;;;;;5014291;28;20414;-83
2023/12/15 11:47:21;;;;;;;31.17;16.43;;;;;;;;;;4982868;28;20434;-83
2023/12/15 11:49:49;;;;;;;40.23;15.77;;;;;;;;;;5014916;28;20404;-82
2023/12/15 11:52:15;;;;;;;30.93;15.83;;;;;;;;;;5029942;28;20466;-83
2023/12/15 11:54:42;;;;;;;40.40;16.50;;;;;;;;;;5014294;28;20929;-82
2023/12/15 11:57:08;;;;;;;30.63;14.87;;;;;;;;;;5013297;28;20418;-82
2023/12/15 11:59:40;;;;;;;38.93;16.57;;;;;;;;;;5012960;28;20419;-82
2023/12/15 12:02:06;;;;;;;38.87;16.27;;;;;;;;;;5014581;28;20765;-83
2023/12/15 12:04:32;;;;;;;41.37;17.30;;;;;;;;;;5012894;28;20993;-82
2023/12/15 12:06:58;;;;;;;32.57;14.90;;;;;;;;;;5013910;28;20425;-80
2023/12/15 12:09:25;;;;;;;29.10;14.17;;;;;;;;;;5012726;28;20414;-85
2023/12/15 12:11:55;;;;;;;37.40;13.80;;;;;;;;;;5012297;28;20843;-85
2023/12/15 12:14:21;;;;;;;30.03;15.20;;;;;;;;;;5013729;28;20430;-85
2023/12/15 12:16:49;;;;;;;40.07;15.50;;;;;;;;;;5013613;28;20446;-84
2023/12/15 12:19:15;;;;;;;36.10;14.60;;;;;;;;;;5013802;28;20996;-84
2023/12/15 12:21:41;;;;;;;31.60;14.10;;;;;;;;;;5013842;28;20452;-84
2023/12/15 12:24:06;;;;;;;34.73;13.90;;;;;;;;;;5013664;28;20507;-85
2023/12/15 12:26:33;;;;;;;37.07;11.90;;;;;;;;;;5013511;28;20957;-85
2023/12/15 12:28:59;;;;;;;30.50;13.17;;;;;;;;;;5013011;28;20489;-85
2023/12/15 12:31:28;;;;;;;35.67;10.53;;;;;;;;;;5013640;28;20409;-85
2023/12/15 12:33:54;;;;;;;26.70;11.97;;;;;;;;;;5013558;28;20472;-83
2023/12/15 12:36:20;;;;;;;34.00;12.40;;;;;;;;;;5013626;28;20416;-82
2023/12/15 12:38:49;;;;;;;26.30;12.60;;;;;;;;;;5013736;28;20752;-84
2023/12/15 12:41:15;;;;;;;28.60;11.80;;;;;;;;;;5012484;28;20449;-82
2023/12/15 12:43:41;;;;;;;33.33;11.77;;;;;;;;;;5012950;28;20805;-82
2023/12/15 12:46:11;;;;;;;39.57;14.57;;;;;;;;;;5013482;28;20427;-84
2023/12/15 12:48:37;;;;;;;30.70;12.67;;;;;;;;;;5013786;28;20442;-81
2023/12/15 12:51:04;;;;;;;32.00;12.90;;;;;;;;;;4973510;28;20956;-82
2023/12/15 12:53:30;;;;;;;25.53;11.07;;;;;;;;;;5011051;28;20477;-84
2023/12/15 12:56:06;;;;;;;34.67;13.07;;;;;;;;;;5013220;28;20514;-84
2023/12/15 12:58:32;;;;;;;33.97;12.67;;;;;;;;;;5012858;28;20461;-85
2023/12/15 13:00:58;;;;;;;29.23;10.60;;;;;;;;;;5013049;28;20417;-85
2023/12/15 13:03:24;;;;;;;33.17;10.87;;;;;;;;;;5012859;28;20487;-85
2023/12/15 13:05:56;;;;;;;31.10;10.93;;;;;;;;;;5011833;28;20747;-86
2023/12/15 13:08:22;;;;;;;31.80;10.77;;;;;;;;;;5011827;28;20437;-84
2023/12/15 13:10:49;;;;;;;28.47;11.23;;;;;;;;;;5012939;28;20495;-86
2023/12/15 13:13:15;;;;;;;26.03;9.67;;;;;;;;;;5012821;28;20991;-83
2023/12/15 13:15:41;;;;;;;27.53;12.80;;;;;;;;;;5012980;28;20569;-87
2023/12/15 13:18:09;;;;;;;20.13;12.83;;;;;;;;;;5012884;28;20979;-84
2023/12/15 13:20:37;;;;;;;30.83;10.73;;;;;;;;;;5013081;28;20403;-86
2023/12/15 13:23:03;;;;;;;28.43;11.53;;;;;;;;;;5012905;28;20413;-82
2023/12/15 13:25:29;;;;;;;25.20;11.60;;;;;;;;;;5012711;28;20464;-86
2023/12/15 13:27:55;;;;;;;23.03;11.03;;;;;;;;;;5012299;28;20402;-86
2023/12/15 13:30:21;;;;;;;25.00;9.43;;;;;;;;;;5012533;28;20430;-85
2023/12/15 13:32:47;;;;;;;33.03;10.93;;;;;;;;;;5011336;28;20465;-86
2023/12/15 13:35:14;;;;;;;29.77;13.43;;;;;;;;;;5012385;28;20430;-84
2023/12/15 13:37:43;;;;;;;29.90;11.43;;;;;;;;;;5012162;28;20423;-85
2023/12/15 13:40:11;;;;;;;25.47;9.23;;;;;;;;;;5012679;28;20449;-87
2023/12/15 13:42:37;;;;;;;30.63;10.50;;;;;;;;;;5012587;28;20902;-86
2023/12/15 13:45:05;;;;;;;22.23;10.80;;;;;;;;;;5012112;28;20429;-85
2023/12/15 13:47:31;;;;;;;23.87;9.90;;;;;;;;;;5012431;28;20446;-85
2023/12/15 13:49:57;;;;;;;27.40;10.60;;;;;;;;;;5012568;28;20457;-85
2023/12/15 13:52:23;;;;;;;28.47;10.70;;;;;;;;;;5012426;28;20846;-85
2023/12/15 13:54:49;;;;;;;27.67;9.93;;;;;;;;;;5012398;28;20460;-85
2023/12/15 13:57:15;;;;;;;22.10;9.30;;;;;;;;;;5012544;28;20439;-85
2023/12/15 13:59:41;;;;;;;22.40;9.50;;;;;;;;;;5012182;28;20912;-85
2023/12/15 14:02:07;;;;;;;21.33;9.33;;;;;;;;;;5012316;28;20403;-86
2023/12/15 14:04:33;;;;;;;25.13;11.23;;;;;;;;;;5011866;28;20821;-86
2023/12/15 14:07:00;;;;;;;22.37;8.83;;;;;;;;;;4999541;28;20433;-86
2023/12/15 14:09:27;;;;;;;28.30;10.27;;;;;;;;;;5032513;28;20416;-85
2023/12/15 14:11:54;;;;;;;24.97;8.57;;;;;;;;;;5031176;28;20507;-87
2023/12/15 14:14:20;;;;;;;30.53;10.50;;;;;;;;;;5031919;28;20431;-86
2023/12/15 14:16:46;;;;;;;25.80;8.73;;;;;;;;;;5032411;28;20411;-84